Time;durP1;ratioP1;P1;durP2;ratioP2;P2;SDS_P1;SDS_P2;PMS_P1;PMS_P2;Temp;Humidity;BMP_temperature;BMP_pressure;BME280_temperature;BME280_humidity;BME280_pressure;Samples;Min_cycle;Max_cycle;Signal;HPM_P1;HPM_P2
2023/07/08 00:01:00;;;;;;;11.70;8.13;;;21.40;99.90;;;;;;4889184;23;20049;-72
2023/07/08 00:03:29;;;;;;;12.57;6.93;;;21.40;99.90;;;;;;4878107;29;20052;-71
2023/07/08 00:05:56;;;;;;;13.70;7.22;;;21.40;99.90;;;;;;4864998;29;20057;-72
2023/07/08 00:08:29;;;;;;;12.55;6.47;;;21.10;99.90;;;;;;4862715;29;20045;-73
2023/07/08 00:11:11;;;;;;;12.55;6.20;;;20.90;99.90;;;;;;4854025;29;20053;-71
2023/07/08 00:13:38;;;;;;;8.55;5.43;;;20.90;99.90;;;;;;4869197;29;20401;-72
2023/07/08 00:16:24;;;;;;;10.48;5.72;;;21.00;99.90;;;;;;4878984;29;20049;-73
2023/07/08 00:18:52;;;;;;;12.60;6.07;;;21.10;99.90;;;;;;4884859;29;20041;-70
2023/07/08 00:21:33;;;;;;;10.50;6.38;;;21.30;99.90;;;;;;4865393;29;20041;-74
2023/07/08 00:24:07;;;;;;;11.48;7.38;;;21.40;99.90;;;;;;4845686;29;20066;-70
2023/07/08 00:26:37;;;;;;;15.57;7.53;;;21.40;99.90;;;;;;4840757;29;20477;-71
2023/07/08 00:29:15;;;;;;;14.65;9.45;;;21.30;99.90;;;;;;4877714;29;20478;-74
2023/07/08 00:31:44;;;;;;;14.27;8.35;;;21.20;99.90;;;;;;4850182;29;20050;-72
2023/07/08 00:34:12;;;;;;;15.07;7.70;;;21.00;99.90;;;;;;4854984;29;20061;-71
2023/07/08 00:36:40;;;;;;;14.07;7.85;;;20.90;99.90;;;;;;4865000;29;20106;-72
2023/07/08 00:39:16;;;;;;;11.73;8.07;;;20.90;99.90;;;;;;4855197;29;20042;-72
2023/07/08 00:41:47;;;;;;;12.40;7.40;;;20.70;99.90;;;;;;4858683;29;20061;-74
2023/07/08 00:44:15;;;;;;;11.35;7.82;;;20.60;99.90;;;;;;4845110;29;20060;-73
2023/07/08 00:47:00;;;;;;;13.23;7.95;;;20.80;99.90;;;;;;4844137;29;20102;-74
2023/07/08 00:49:55;;;;;;;15.00;8.13;;;20.70;99.90;;;;;;4855687;29;20046;-71
2023/07/08 00:52:27;;;;;;;12.02;8.10;;;20.60;99.90;;;;;;4866828;29;20053;-71
2023/07/08 00:55:06;;;;;;;10.90;7.72;;;20.70;99.90;;;;;;4851812;29;20395;-71
2023/07/08 00:57:40;;;;;;;13.57;6.45;;;20.80;99.90;;;;;;4852228;29;20517;-74
2023/07/08 01:00:16;;;;;;;11.50;7.10;;;20.70;99.90;;;;;;4854529;29;20061;-71
2023/07/08 01:03:04;;;;;;;10.38;6.35;;;20.80;99.90;;;;;;4850794;29;20615;-72
2023/07/08 01:05:52;;;;;;;18.13;7.57;;;20.90;99.90;;;;;;4848128;29;20060;-72
2023/07/08 01:08:36;;;;;;;9.43;5.90;;;21.00;99.90;;;;;;4861851;29;20049;-70
2023/07/08 01:11:05;;;;;;;13.13;5.53;;;21.00;99.90;;;;;;4874233;29;20056;-73
2023/07/08 01:13:40;;;;;;;8.25;5.45;;;21.00;99.90;;;;;;4861690;29;20101;-74
2023/07/08 01:16:21;;;;;;;10.52;5.80;;;20.10;99.90;;;;;;4855687;29;20083;-72
2023/07/08 01:19:01;;;;;;;11.77;5.82;;;20.10;99.90;;;;;;4843672;29;20044;-72
2023/07/08 01:21:37;;;;;;;10.02;6.20;;;20.10;99.90;;;;;;4860684;29;20487;-73
2023/07/08 01:24:40;;;;;;;9.23;5.60;;;20.20;99.90;;;;;;4843688;29;20102;-74
2023/07/08 01:27:18;;;;;;;18.08;5.15;;;20.30;99.90;;;;;;4861959;29;20083;-71
2023/07/08 01:29:50;;;;;;;10.38;6.53;;;20.20;99.90;;;;;;4881210;24;20049;-71
2023/07/08 01:32:26;;;;;;;9.15;5.30;;;20.10;99.90;;;;;;4895397;29;20208;-73
2023/07/08 01:34:59;;;;;;;10.80;5.22;;;20.20;99.90;;;;;;4899175;29;20063;-71
2023/07/08 01:37:48;;;;;;;8.77;5.32;;;20.20;99.90;;;;;;4886910;29;20152;-74
2023/07/08 01:40:18;;;;;;;10.25;5.55;;;20.20;99.90;;;;;;4898555;29;20044;-71
2023/07/08 01:42:46;;;;;;;;;;;20.20;99.90;;;;;;4898704;29;20436;-72
2023/07/08 01:45:18;;;;;;;7.63;5.00;;;20.30;99.90;;;;;;4881079;29;20388;-71
2023/07/08 01:47:56;;;;;;;7.88;4.78;;;20.30;99.90;;;;;;4892283;29;20052;-71
2023/07/08 01:50:26;;;;;;;9.00;5.28;;;20.40;99.90;;;;;;4883818;29;20143;-72
2023/07/08 01:53:01;;;;;;;13.57;5.65;;;20.50;99.90;;;;;;4896661;29;20076;-72
2023/07/08 01:55:31;;;;;;;8.32;4.85;;;20.60;99.90;;;;;;4883380;29;20104;-72
2023/07/08 01:58:00;;;;;;;8.45;5.10;;;20.50;99.90;;;;;;4882524;29;20099;-70
2023/07/08 02:00:27;;;;;;;8.77;4.95;;;20.80;99.90;;;;;;4888155;29;20060;-71
2023/07/08 02:02:55;;;;;;;9.45;4.82;;;20.40;99.90;;;;;;4896327;29;20052;-69
2023/07/08 02:05:28;;;;;;;8.35;4.60;;;20.20;99.90;;;;;;4904193;29;20489;-72
2023/07/08 02:08:03;;;;;;;9.18;4.90;;;20.30;99.90;;;;;;4865126;29;20051;-73
2023/07/08 02:10:30;;;;;;;7.80;4.90;;;20.40;99.90;;;;;;4898067;29;20374;-72
2023/07/08 02:13:02;;;;;;;9.30;4.38;;;20.50;99.90;;;;;;4897600;29;20382;-73
2023/07/08 02:15:34;;;;;;;9.02;5.65;;;20.60;99.90;;;;;;4898425;29;20173;-73
2023/07/08 02:18:04;;;;;;;9.10;4.57;;;20.80;99.90;;;;;;4888746;29;20050;-72
2023/07/08 02:20:33;;;;;;;8.15;5.28;;;20.40;99.90;;;;;;4890833;29;20060;-73
2023/07/08 02:23:04;;;;;;;8.27;4.80;;;20.30;99.90;;;;;;4871610;29;20044;-72
2023/07/08 02:25:31;;;;;;;6.90;4.78;;;20.40;99.90;;;;;;4880849;29;20048;-73
2023/07/08 02:27:59;;;;;;;7.13;4.80;;;20.10;99.90;;;;;;4862954;29;20065;-72
2023/07/08 02:30:27;;;;;;;8.75;5.05;;;20.10;99.90;;;;;;4883954;29;20123;-71
2023/07/08 02:32:57;;;;;;;9.18;5.70;;;20.00;99.90;;;;;;4887092;29;20049;-73
2023/07/08 02:35:32;;;;;;;;;;;20.10;99.90;;;;;;4889778;29;20057;-70
2023/07/08 02:38:08;;;;;;;9.77;4.88;;;20.10;99.90;;;;;;4887747;29;20014;-70
2023/07/08 02:40:35;;;;;;;7.45;5.07;;;20.10;99.90;;;;;;4864249;29;20071;-74
2023/07/08 02:43:03;;;;;;;8.48;5.30;;;20.10;99.90;;;;;;4880027;29;20131;-73
2023/07/08 02:45:36;;;;;;;8.48;5.45;;;20.10;99.90;;;;;;4852790;29;20577;-69
2023/07/08 02:48:03;;;;;;;9.40;5.13;;;20.00;99.90;;;;;;4863739;29;20409;-72
2023/07/08 02:50:31;;;;;;;8.20;5.13;;;20.10;99.90;;;;;;4878435;29;20049;-70
2023/07/08 02:53:00;;;;;;;8.25;5.30;;;20.10;99.90;;;;;;4881969;29;20472;-71
2023/07/08 02:55:27;;;;;;;9.02;5.80;;;20.20;99.90;;;;;;4899068;29;20040;-71
2023/07/08 02:57:55;;;;;;;7.93;4.90;;;20.30;99.90;;;;;;4870568;29;20060;-72
2023/07/08 03:00:25;;;;;;;9.38;5.47;;;20.10;99.90;;;;;;4867610;29;20112;-72
2023/07/08 03:02:52;;;;;;;10.15;6.03;;;20.30;99.90;;;;;;4866673;29;20461;-71
2023/07/08 03:05:20;;;;;;;7.47;4.75;;;20.20;99.90;;;;;;4899388;29;20424;-71
2023/07/08 03:07:47;;;;;;;11.30;5.07;;;20.00;99.90;;;;;;4863756;29;20045;-74
2023/07/08 03:10:15;;;;;;;9.35;4.80;;;19.90;99.90;;;;;;4875888;29;20076;-71
2023/07/08 03:12:42;;;;;;;8.45;4.55;;;19.90;99.90;;;;;;4898173;29;20116;-72
2023/07/08 03:15:09;;;;;;;8.05;4.63;;;19.90;99.90;;;;;;4867515;29;20060;-73
2023/07/08 03:17:37;;;;;;;9.30;4.38;;;20.00;99.90;;;;;;4898237;29;20044;-70
2023/07/08 03:20:10;;;;;;;8.55;5.18;;;20.10;99.90;;;;;;4897922;29;20048;-72
2023/07/08 03:22:41;;;;;;;10.68;5.30;;;20.10;99.90;;;;;;4857042;29;20137;-72
2023/07/08 03:25:09;;;;;;;9.02;5.00;;;20.10;99.90;;;;;;4881055;29;20131;-71
2023/07/08 03:27:36;;;;;;;7.65;4.95;;;20.20;99.90;;;;;;4866836;29;20132;-73
2023/07/08 03:30:05;;;;;;;9.38;4.97;;;19.90;99.90;;;;;;4898130;29;20147;-72
2023/07/08 03:32:32;;;;;;;8.25;4.97;;;20.00;99.90;;;;;;4898278;29;20059;-72
2023/07/08 03:35:01;;;;;;;17.58;5.80;;;20.10;99.90;;;;;;4886681;29;20075;-71
2023/07/08 03:37:29;;;;;;;8.35;5.30;;;20.00;99.90;;;;;;4883336;29;20057;-72
2023/07/08 03:39:56;;;;;;;8.38;4.97;;;20.00;99.90;;;;;;4876000;29;20048;-72
2023/07/08 03:42:23;;;;;;;8.25;4.95;;;20.00;99.90;;;;;;4880534;29;20049;-71
2023/07/08 03:44:55;;;;;;;9.27;5.03;;;19.90;99.90;;;;;;4896112;29;20048;-73
2023/07/08 03:47:22;;;;;;;10.07;5.13;;;20.10;99.90;;;;;;4878853;29;20075;-72
2023/07/08 03:49:50;;;;;;;9.90;5.22;;;20.10;99.90;;;;;;4876361;29;20092;-72
2023/07/08 03:52:17;;;;;;;10.80;4.90;;;20.10;99.90;;;;;;4887870;29;20116;-73
2023/07/08 03:54:45;;;;;;;8.93;5.40;;;20.00;99.90;;;;;;4883250;29;20128;-72
2023/07/08 03:57:22;;;;;;;10.18;5.60;;;20.00;99.90;;;;;;4873162;29;20056;-74
2023/07/08 03:59:49;;;;;;;9.55;5.10;;;20.00;99.90;;;;;;4881152;29;20447;-71
2023/07/08 04:02:24;;;;;;;7.07;4.68;;;20.10;99.90;;;;;;4878934;29;20056;-73
2023/07/08 04:04:57;;;;;;;7.75;5.03;;;20.40;99.90;;;;;;4856688;29;20052;-74
2023/07/08 04:07:27;;;;;;;7.65;4.88;;;20.20;99.90;;;;;;4863344;29;20089;-72
2023/07/08 04:09:56;;;;;;;8.45;5.15;;;20.20;99.90;;;;;;4863048;29;20151;-74
2023/07/08 04:12:41;;;;;;;8.27;4.30;;;20.10;99.90;;;;;;4876420;29;20143;-73
2023/07/08 04:15:17;;;;;;;10.52;4.65;;;20.20;99.90;;;;;;4877063;29;20075;-75
2023/07/08 04:17:47;;;;;;;7.65;4.90;;;20.10;99.90;;;;;;4896933;29;20056;-74
2023/07/08 04:20:18;;;;;;;8.40;5.07;;;20.00;99.90;;;;;;4865416;29;20048;-71
2023/07/08 04:22:46;;;;;;;11.15;4.65;;;20.00;99.90;;;;;;4866077;29;20080;-73
2023/07/08 04:25:14;;;;;;;9.52;5.03;;;20.00;99.90;;;;;;4881319;29;20077;-73
2023/07/08 04:27:42;;;;;;;8.02;4.93;;;20.00;99.90;;;;;;4897515;29;20052;-73
2023/07/08 04:30:22;;;;;;;9.15;5.53;;;20.00;99.90;;;;;;4896849;29;20094;-73
2023/07/08 04:32:52;;;;;;;;;;;20.10;99.90;;;;;;4887172;29;20057;-72
2023/07/08 04:35:40;;;;;;;10.73;4.70;;;20.20;99.90;;;;;;4866160;29;19938;-72
2023/07/08 04:38:21;;;;;;;10.13;4.85;;;20.40;99.90;;;;;;4896154;29;20071;-72
2023/07/08 04:40:58;;;;;;;7.47;5.32;;;20.50;99.90;;;;;;4870965;29;20409;-74
2023/07/08 04:43:29;;;;;;;8.18;5.40;;;20.40;99.90;;;;;;4861975;29;20109;-73
2023/07/08 04:45:57;;;;;;;8.43;4.93;;;20.50;99.90;;;;;;4872434;29;20045;-74
2023/07/08 04:48:25;;;;;;;10.95;5.50;;;20.40;99.90;;;;;;4896803;29;20045;-75
2023/07/08 04:50:57;;;;;;;7.80;4.82;;;20.40;99.90;;;;;;4887478;29;20060;-75
2023/07/08 04:53:30;;;;;;;8.63;5.25;;;20.50;99.90;;;;;;4877965;29;20045;-71
2023/07/08 04:55:58;;;;;;;10.05;4.68;;;20.50;99.90;;;;;;4860074;29;20080;-71
2023/07/08 04:58:26;;;;;;;12.55;5.28;;;20.40;99.90;;;;;;4877873;29;20060;-73
2023/07/08 05:00:56;;;;;;;10.27;5.18;;;20.50;99.90;;;;;;4878272;29;20413;-73
2023/07/08 05:03:23;;;;;;;8.65;5.25;;;20.60;99.90;;;;;;4848020;29;20069;-73
2023/07/08 05:05:54;;;;;;;8.43;5.53;;;20.70;99.90;;;;;;4866188;29;20056;-74
2023/07/08 05:08:36;;;;;;;8.25;5.20;;;20.90;99.90;;;;;;4899725;29;20041;-75
2023/07/08 05:11:08;;;;;;;8.73;5.53;;;20.90;99.90;;;;;;4847771;23;20050;-75
2023/07/08 05:13:42;;;;;;;9.20;5.03;;;20.90;99.90;;;;;;4838717;29;20062;-74
2023/07/08 05:16:14;;;;;;;8.98;5.32;;;20.90;99.90;;;;;;4824738;29;20034;-75
2023/07/08 05:18:56;;;;;;;9.55;5.25;;;21.10;99.90;;;;;;4839599;29;20061;-73
2023/07/08 05:21:27;;;;;;;8.27;5.40;;;21.10;99.90;;;;;;4821859;29;20058;-73
2023/07/08 05:23:54;;;;;;;7.75;5.10;;;21.00;99.90;;;;;;4807803;29;20539;-75
2023/07/08 05:26:24;;;;;;;12.38;6.03;;;21.10;99.90;;;;;;4820290;29;20450;-73
2023/07/08 05:28:51;;;;;;;8.98;6.30;;;21.10;99.90;;;;;;4833470;29;20096;-72
2023/07/08 05:31:19;;;;;;;9.77;5.93;;;21.20;99.90;;;;;;4830445;29;20062;-72
2023/07/08 05:33:49;;;;;;;11.27;6.13;;;21.30;99.90;;;;;;4810140;29;20053;-72
2023/07/08 05:36:17;;;;;;;10.15;5.68;;;21.40;99.90;;;;;;4813227;29;20230;-71
2023/07/08 05:38:48;;;;;;;;;;;21.60;99.90;;;;;;4834146;29;20043;-73
2023/07/08 05:41:15;;;;;;;10.43;5.78;;;21.60;99.90;;;;;;4833904;29;19932;-73
2023/07/08 05:43:43;;;;;;;9.32;6.53;;;21.70;99.90;;;;;;4804780;29;20066;-73
2023/07/08 05:46:13;;;;;;;14.93;6.45;;;21.80;99.90;;;;;;4819557;29;20054;-72
2023/07/08 05:48:41;;;;;;;12.30;6.82;;;21.90;99.90;;;;;;4803381;29;20070;-73
2023/07/08 05:51:11;;;;;;;12.63;6.35;;;21.90;99.90;;;;;;4819032;29;20051;-71
2023/07/08 05:53:39;;;;;;;8.85;6.03;;;22.00;99.90;;;;;;4840609;29;20056;-72
2023/07/08 05:56:09;;;;;;;10.60;5.93;;;22.10;99.90;;;;;;4820722;29;20074;-75
2023/07/08 05:58:39;;;;;;;10.27;6.50;;;22.20;99.90;;;;;;4816294;29;20046;-73
2023/07/08 06:01:08;;;;;;;9.13;5.78;;;22.40;99.90;;;;;;4805104;29;20055;-71
2023/07/08 06:03:48;;;;;;;9.48;6.32;;;22.60;99.90;;;;;;4818607;29;20057;-72
2023/07/08 06:06:22;;;;;;;10.02;6.32;;;22.40;99.90;;;;;;4807539;29;20047;-71
2023/07/08 06:08:50;;;;;;;8.93;6.10;;;22.50;99.90;;;;;;4820644;29;20547;-73
2023/07/08 06:11:20;;;;;;;9.85;5.63;;;22.50;99.90;;;;;;4834197;29;20066;-72
2023/07/08 06:13:51;;;;;;;10.85;6.85;;;22.60;99.90;;;;;;4823417;29;20051;-74
2023/07/08 06:16:20;;;;;;;9.13;5.80;;;22.80;99.90;;;;;;4844074;29;20037;-75
2023/07/08 06:19:05;;;;;;;11.02;6.53;;;22.60;99.90;;;;;;4850095;29;20049;-74
2023/07/08 06:21:36;;;;;;;11.88;7.03;;;22.60;99.90;;;;;;4808290;29;20053;-74
2023/07/08 06:24:04;;;;;;;10.65;5.90;;;22.80;99.90;;;;;;4820315;29;20042;-75
2023/07/08 06:26:31;;;;;;;10.65;7.07;;;22.80;99.90;;;;;;4821925;29;20081;-76
2023/07/08 06:28:59;;;;;;;11.93;5.95;;;22.80;99.90;;;;;;4833522;29;20050;-74
2023/07/08 06:31:26;;;;;;;9.65;6.03;;;22.80;99.90;;;;;;4834003;29;20085;-75
2023/07/08 06:33:54;;;;;;;12.98;6.20;;;22.80;99.90;;;;;;4875663;24;20782;-75
2023/07/08 06:36:22;;;;;;;10.52;6.13;;;23.00;99.90;;;;;;4872905;29;20059;-78
2023/07/08 06:38:50;;;;;;;12.75;6.00;;;23.00;99.90;;;;;;4844497;29;20421;-74
2023/07/08 06:41:17;;;;;;;11.65;6.70;;;23.10;99.90;;;;;;4861826;29;20053;-74
2023/07/08 06:43:46;;;;;;;13.13;6.38;;;23.20;99.90;;;;;;4846019;29;20049;-75
2023/07/08 06:46:16;;;;;;;14.10;7.70;;;23.40;99.90;;;;;;4877383;29;20065;-74
2023/07/08 06:48:53;;;;;;;8.93;6.20;;;23.30;99.60;;;;;;4857075;29;20056;-74
2023/07/08 06:51:49;;;;;;;12.00;7.18;;;23.10;99.90;;;;;;4836809;29;20113;-76
2023/07/08 06:54:28;;;;;;;10.10;6.45;;;23.30;99.80;;;;;;4878089;29;20052;-75
2023/07/08 06:56:55;;;;;;;11.30;7.70;;;23.30;99.60;;;;;;4851603;29;20049;-74
2023/07/08 06:59:32;;;;;;;10.13;6.93;;;23.50;99.90;;;;;;4861995;29;20521;-76
2023/07/08 07:02:09;;;;;;;9.63;6.68;;;23.60;99.30;;;;;;4843615;29;20057;-74
2023/07/08 07:04:37;;;;;;;9.15;6.03;;;23.70;98.90;;;;;;4875285;29;20080;-74
2023/07/08 07:07:04;;;;;;;8.88;6.15;;;23.80;99.50;;;;;;4877243;29;20048;-76
2023/07/08 07:09:38;;;;;;;9.13;6.53;;;23.80;98.60;;;;;;4877306;29;20045;-74
2023/07/08 07:12:16;;;;;;;10.98;5.63;;;23.80;98.10;;;;;;4846493;29;20053;-79
2023/07/08 07:15:08;;;;;;;8.98;5.10;;;23.90;98.30;;;;;;4848277;29;20045;-79
2023/07/08 07:18:04;;;;;;;9.30;5.72;;;23.90;94.80;;;;;;4867194;29;20118;-75
2023/07/08 07:21:17;;;;;;;56.75;40.72;;;24.00;94.70;;;;;;4837520;29;20537;-76
2023/07/08 07:37:31;;;;;;;10.45;6.15;;;24.20;92.40;;;;;;4880988;29;20048;-79
2023/07/08 07:40:30;;;;;;;27.40;19.33;;;24.20;91.70;;;;;;4867878;29;20055;-74
2023/07/08 07:43:31;;;;;;;11.95;7.53;;;24.30;91.50;;;;;;4880701;29;20073;-77
2023/07/08 07:46:07;;;;;;;9.32;5.32;;;24.30;90.00;;;;;;4866505;29;20139;-76
2023/07/08 07:48:57;;;;;;;16.33;10.70;;;24.50;90.00;;;;;;4898693;29;20041;-77
2023/07/08 07:51:28;;;;;;;8.35;5.10;;;24.30;88.50;;;;;;4861981;29;20550;-71
2023/07/08 07:53:58;;;;;;;6.97;4.60;;;24.30;87.70;;;;;;4864991;29;20057;-74
2023/07/08 07:56:27;;;;;;;10.20;5.00;;;24.30;87.50;;;;;;4878827;29;20048;-76
2023/07/08 07:59:07;;;;;;;10.85;4.85;;;24.30;87.80;;;;;;4864552;29;20139;-72
2023/07/08 08:01:35;;;;;;;8.25;4.38;;;24.30;87.20;;;;;;4898150;29;20044;-72
2023/07/08 08:04:06;;;;;;;8.57;4.57;;;24.30;85.50;;;;;;4898018;29;20066;-75
2023/07/08 08:10:05;;;;;;;8.95;4.13;;;24.40;86.10;;;;;;4821776;29;20050;-74
2023/07/08 08:12:43;;;;;;;9.27;4.85;;;24.40;83.30;;;;;;4804756;29;20051;-74
2023/07/08 08:15:25;;;;;;;8.80;5.03;;;24.60;84.20;;;;;;4806664;29;20039;-73
2023/07/08 08:17:55;;;;;;;8.10;4.47;;;24.50;84.20;;;;;;4852569;24;20410;-72
2023/07/08 08:20:27;;;;;;;8.93;5.00;;;24.50;84.00;;;;;;4859140;29;20137;-72
2023/07/08 08:22:55;;;;;;;9.52;4.85;;;24.50;82.00;;;;;;4858752;29;20045;-77
2023/07/08 08:25:38;;;;;;;7.40;4.57;;;24.50;82.70;;;;;;4848307;29;20054;-75
2023/07/08 08:28:07;;;;;;;9.23;6.03;;;24.80;83.10;;;;;;4837153;29;20398;-73
2023/07/08 08:30:35;;;;;;;15.43;8.57;;;24.80;82.00;;;;;;4859813;29;20049;-76
2023/07/08 08:33:02;;;;;;;10.20;4.93;;;24.90;81.50;;;;;;4861742;29;20057;-71
2023/07/08 08:35:30;;;;;;;7.38;4.35;;;24.70;82.00;;;;;;4852568;29;20141;-72
2023/07/08 08:38:00;;;;;;;11.57;4.82;;;24.80;78.20;;;;;;4856453;29;20061;-74
2023/07/08 08:40:27;;;;;;;6.68;3.65;;;24.80;78.80;;;;;;4847952;29;20494;-75
2023/07/08 08:43:10;;;;;;;9.43;4.60;;;24.90;77.80;;;;;;4859751;29;20061;-75
2023/07/08 08:46:08;;;;;;;10.43;4.43;;;24.80;77.40;;;;;;4856417;29;20077;-75
2023/07/08 08:49:19;;;;;;;11.38;5.07;;;24.80;78.00;;;;;;4847334;23;20052;-75
2023/07/08 08:51:55;;;;;;;10.45;4.45;;;25.00;79.30;;;;;;4867582;29;20108;-72
2023/07/08 08:54:22;;;;;;;6.05;3.58;;;25.00;77.50;;;;;;4855609;29;20143;-76
2023/07/08 08:56:50;;;;;;;7.07;3.97;;;24.90;75.10;;;;;;4872036;29;20390;-73
2023/07/08 09:00:10;;;;;;;8.00;4.22;;;25.00;78.30;;;;;;4869591;29;20148;-74
2023/07/08 09:03:04;;;;;;;10.00;4.13;;;25.00;77.50;;;;;;4859284;29;20057;-77
2023/07/08 09:05:36;;;;;;;8.93;3.95;;;25.00;76.20;;;;;;4856658;29;20049;-75
2023/07/08 09:08:31;;;;;;;7.43;4.20;;;25.20;75.90;;;;;;4872288;29;20109;-75
2023/07/08 09:11:23;;;;;;;9.00;4.32;;;25.10;75.90;;;;;;4877866;29;20056;-74
2023/07/08 09:14:06;;;;;;;6.95;4.47;;;25.40;77.30;;;;;;4879268;29;20117;-73
2023/07/08 09:17:07;;;;;;;7.72;5.00;;;25.60;77.60;;;;;;4849163;29;20052;-72
2023/07/08 09:20:18;;;;;;;11.98;4.82;;;25.40;76.90;;;;;;4872134;29;20055;-71
2023/07/08 09:23:32;;;;;;;11.05;4.75;;;25.40;78.40;;;;;;4848516;29;20318;-76
2023/07/08 09:26:50;;;;;;;8.60;4.70;;;25.50;78.70;;;;;;4868262;29;20061;-75
2023/07/08 09:29:25;;;;;;;8.80;4.78;;;25.30;77.30;;;;;;4862470;29;20049;-74
2023/07/08 09:32:40;;;;;;;10.77;5.95;;;25.60;78.20;;;;;;4894572;23;20125;-74
2023/07/08 09:35:43;;;;;;;;;;;25.70;77.50;;;;;;4934114;23;20052;-73
2023/07/08 09:38:24;;;;;;;11.32;4.88;;;25.70;77.50;;;;;;4884062;29;19934;-72
2023/07/08 09:40:54;;;;;;;8.63;4.70;;;25.50;75.40;;;;;;4896934;29;20072;-72
2023/07/08 09:43:38;;;;;;;9.90;5.13;;;25.60;76.50;;;;;;4898866;29;20080;-73
2023/07/08 09:46:12;;;;;;;17.43;6.87;;;25.90;77.40;;;;;;4893252;29;20054;-72
2023/07/08 09:48:46;;;;;;;9.95;5.38;;;26.00;76.80;;;;;;4889641;29;20065;-74
2023/07/08 09:51:23;;;;;;;10.40;5.40;;;26.10;76.60;;;;;;4896716;29;20126;-73
2023/07/08 09:53:50;;;;;;;10.98;4.97;;;26.00;76.80;;;;;;4899787;29;20040;-72
2023/07/08 09:56:23;;;;;;;13.50;6.20;;;26.00;75.00;;;;;;4913706;29;20056;-73
2023/07/08 09:58:56;;;;;;;15.20;5.80;;;26.00;75.90;;;;;;4876049;29;20043;-77
2023/07/08 10:01:30;;;;;;;10.15;5.28;;;26.10;77.00;;;;;;4885876;29;20059;-73
2023/07/08 10:04:09;;;;;;;9.00;4.78;;;26.30;77.90;;;;;;4883677;29;20505;-73
2023/07/08 10:06:37;;;;;;;7.47;4.38;;;26.10;75.00;;;;;;4881480;29;20066;-72
2023/07/08 10:09:18;;;;;;;9.27;4.70;;;26.30;73.60;;;;;;4897850;29;20590;-71
2023/07/08 10:12:02;;;;;;;11.27;5.35;;;26.30;73.80;;;;;;4898140;29;20492;-75
2023/07/08 10:14:47;;;;;;;8.43;4.90;;;26.40;74.00;;;;;;4906422;29;20047;-73
2023/07/08 10:17:19;;;;;;;35.28;21.95;;;26.50;74.80;;;;;;4895097;29;20059;-71
2023/07/08 10:19:48;;;;;;;38.42;27.25;;;26.70;75.00;;;;;;4897871;29;20108;-73
2023/07/08 10:22:31;;;;;;;9.38;6.55;;;26.80;74.60;;;;;;4879268;29;20048;-72
2023/07/08 10:25:27;;;;;;;9.90;5.18;;;26.80;72.70;;;;;;4888499;29;20045;-70
2023/07/08 10:28:39;;;;;;;7.93;4.95;;;26.50;71.90;;;;;;4877869;29;20084;-77
2023/07/08 10:31:31;;;;;;;7.75;4.53;;;26.50;71.50;;;;;;4837550;29;20076;-74
2023/07/08 10:34:37;;;;;;;10.50;5.03;;;26.60;71.40;;;;;;4857495;29;20049;-73
2023/07/08 10:37:09;;;;;;;8.65;4.82;;;26.70;70.80;;;;;;4843804;29;20042;-74
2023/07/08 10:40:00;;;;;;;9.05;4.60;;;26.80;71.10;;;;;;4876803;29;20049;-77
2023/07/08 10:43:06;;;;;;;9.68;5.25;;;26.90;70.90;;;;;;4860673;29;20147;-73
2023/07/08 10:45:37;;;;;;;12.23;4.60;;;27.00;70.80;;;;;;4895630;29;20051;-76
2023/07/08 10:48:09;;;;;;;28.67;19.27;;;26.90;70.10;;;;;;4881067;29;20049;-74
2023/07/08 10:50:54;;;;;;;19.15;11.23;;;27.10;71.80;;;;;;4861976;29;20052;-74
2023/07/08 10:53:27;;;;;;;8.88;5.25;;;27.30;72.00;;;;;;4867091;29;20053;-72
2023/07/08 10:55:57;;;;;;;10.65;5.10;;;27.50;72.70;;;;;;4850379;29;20104;-73
2023/07/08 10:58:25;;;;;;;8.63;4.78;;;27.30;71.00;;;;;;4890291;29;20059;-74
2023/07/08 11:00:58;;;;;;;12.40;5.25;;;27.40;71.00;;;;;;4868701;29;20075;-73
2023/07/08 11:03:49;;;;;;;9.20;4.65;;;27.60;73.30;;;;;;4876066;29;20156;-75
2023/07/08 11:07:01;;;;;;;8.25;4.63;;;27.60;71.60;;;;;;4879188;29;20100;-73
2023/07/08 11:09:42;;;;;;;8.43;4.82;;;27.40;70.20;;;;;;4893420;29;20055;-76
2023/07/08 11:12:33;;;;;;;8.00;5.15;;;27.40;71.70;;;;;;4863413;29;20067;-73
2023/07/08 11:15:57;;;;;;;8.00;4.50;;;27.70;72.10;;;;;;4875403;29;20142;-75
2023/07/08 11:18:53;;;;;;;8.52;4.57;;;27.80;70.20;;;;;;4850286;29;20143;-72
2023/07/08 11:21:39;;;;;;;7.47;4.35;;;28.00;71.00;;;;;;4891626;29;20048;-74
2023/07/08 11:24:32;;;;;;;9.02;4.90;;;28.20;70.40;;;;;;4897480;29;20044;-75
2023/07/08 11:27:26;;;;;;;6.38;4.10;;;28.40;70.50;;;;;;4884180;29;20084;-74
2023/07/08 11:30:21;;;;;;;7.85;4.40;;;28.00;68.70;;;;;;4872775;29;20068;-75
2023/07/08 11:33:06;;;;;;;9.65;4.80;;;27.70;68.90;;;;;;4892520;29;20048;-75
2023/07/08 11:35:52;;;;;;;10.80;4.28;;;27.90;68.60;;;;;;4857852;29;20395;-74
2023/07/08 11:38:20;;;;;;;7.65;4.78;;;27.80;68.50;;;;;;4861815;29;20064;-77
2023/07/08 11:41:06;;;;;;;12.70;5.10;;;27.80;68.10;;;;;;4872126;23;20071;-72
2023/07/08 11:43:44;;;;;;;46.90;31.50;;;28.10;69.80;;;;;;4863666;29;20053;-73
2023/07/08 11:46:20;;;;;;;16.55;12.45;;;28.10;68.70;;;;;;4879890;23;20049;-74
2023/07/08 11:48:55;;;;;;;20.67;15.73;;;28.40;68.60;;;;;;4880239;29;20060;-73
2023/07/08 11:51:44;;;;;;;9.45;5.30;;;28.80;70.00;;;;;;4877723;29;20080;-75
2023/07/08 11:54:15;;;;;;;9.70;5.00;;;28.90;69.50;;;;;;4879666;29;20041;-72
2023/07/08 11:56:58;;;;;;;8.63;5.13;;;29.00;68.10;;;;;;4866190;29;20100;-72
2023/07/08 11:59:41;;;;;;;9.88;4.25;;;28.90;67.20;;;;;;4894270;29;20107;-72
2023/07/08 12:02:13;;;;;;;12.07;4.70;;;29.00;68.70;;;;;;4896817;29;20439;-73
2023/07/08 12:05:01;;;;;;;63.25;48.72;;;29.10;68.40;;;;;;4871194;29;20426;-72
2023/07/08 12:07:37;;;;;;;240.63;174.77;;;29.00;67.90;;;;;;4866250;29;20136;-73
2023/07/08 12:10:19;;;;;;;25.25;21.13;;;29.20;67.50;;;;;;4882809;29;20458;-72
2023/07/08 12:12:47;;;;;;;14.43;8.45;;;29.40;68.00;;;;;;4853083;29;20413;-73
2023/07/08 12:15:24;;;;;;;10.13;6.22;;;29.50;67.30;;;;;;4855786;29;20080;-75
2023/07/08 12:17:59;;;;;;;10.40;5.97;;;29.40;66.20;;;;;;4861586;29;20049;-72
2023/07/08 12:20:50;;;;;;;9.18;5.82;;;29.50;66.40;;;;;;4858492;29;20080;-76
2023/07/08 12:23:21;;;;;;;9.55;6.03;;;29.40;66.50;;;;;;4851339;29;20041;-72
2023/07/08 12:25:56;;;;;;;9.38;5.68;;;28.90;66.70;;;;;;4876637;29;20037;-71
2023/07/08 12:28:25;;;;;;;12.50;5.90;;;29.00;66.90;;;;;;4885765;23;20140;-70
2023/07/08 12:30:54;;;;;;;9.82;6.22;;;29.20;67.20;;;;;;4878972;29;20377;-71
2023/07/08 12:33:30;;;;;;;;;;;28.90;64.80;;;;;;4862922;29;20422;-71
2023/07/08 12:36:01;;;;;;;10.07;5.70;;;29.00;65.60;;;;;;4877960;29;19928;-71
2023/07/08 12:38:41;;;;;;;8.13;4.95;;;29.40;66.30;;;;;;4862655;29;20041;-73
2023/07/08 12:41:26;;;;;;;9.90;5.65;;;29.60;65.00;;;;;;4877396;29;20072;-72
2023/07/08 12:43:55;;;;;;;8.68;5.40;;;29.80;65.80;;;;;;4846689;29;20533;-72
2023/07/08 12:46:23;;;;;;;7.18;4.55;;;29.80;62.80;;;;;;4878815;29;20120;-72
2023/07/08 12:48:58;;;;;;;8.25;4.53;;;29.70;62.20;;;;;;4862437;29;20049;-71
2023/07/08 12:51:26;;;;;;;11.50;5.55;;;29.70;62.80;;;;;;4861753;29;20049;-71
2023/07/08 12:53:54;;;;;;;7.90;4.43;;;29.60;64.00;;;;;;4860082;29;20490;-71
2023/07/08 12:56:23;;;;;;;11.10;5.05;;;29.70;63.80;;;;;;4861498;29;20084;-71
2023/07/08 12:58:59;;;;;;;9.97;5.00;;;29.80;64.10;;;;;;4861901;29;20455;-73
2023/07/08 13:01:30;;;;;;;9.95;5.57;;;30.00;64.30;;;;;;4861868;29;20168;-73
2023/07/08 13:04:09;;;;;;;9.73;4.97;;;29.90;64.30;;;;;;4877691;29;20079;-71
2023/07/08 13:06:39;;;;;;;8.80;4.70;;;30.00;64.40;;;;;;4877133;29;20460;-72
2023/07/08 13:09:23;;;;;;;8.45;4.43;;;30.00;64.40;;;;;;4878055;29;20077;-71
2023/07/08 13:11:56;;;;;;;9.52;4.85;;;30.00;64.40;;;;;;4845270;29;20363;-74
2023/07/08 13:14:28;;;;;;;10.50;4.53;;;30.10;63.90;;;;;;4843903;29;20049;-73
2023/07/08 13:16:57;;;;;;;23.25;14.20;;;30.20;64.10;;;;;;4877273;29;20062;-76
2023/07/08 13:19:31;;;;;;;46.17;32.95;;;30.20;64.30;;;;;;4877295;29;20047;-73
2023/07/08 13:22:00;;;;;;;67.75;51.20;;;30.20;64.80;;;;;;4878488;29;20069;-72
2023/07/08 13:24:31;;;;;;;22.65;17.33;;;30.30;63.50;;;;;;4847089;29;20438;-71
2023/07/08 13:26:59;;;;;;;9.85;6.88;;;30.30;63.60;;;;;;4854598;29;20132;-73
2023/07/08 13:29:35;;;;;;;10.45;6.32;;;30.30;63.40;;;;;;4859669;29;20053;-72
2023/07/08 13:32:06;;;;;;;87.85;62.10;;;30.30;62.90;;;;;;4847318;29;20053;-71
2023/07/08 13:34:35;;;;;;;73.35;54.90;;;30.30;62.00;;;;;;4859632;29;20143;-75
2023/07/08 13:37:03;;;;;;;36.88;24.75;;;30.30;61.80;;;;;;4882110;23;21322;-75
2023/07/08 13:39:36;;;;;;;14.05;9.90;;;30.30;63.10;;;;;;4860827;29;20044;-72
2023/07/08 13:42:23;;;;;;;10.95;6.85;;;30.40;61.80;;;;;;4874258;29;20041;-74
2023/07/08 13:44:52;;;;;;;11.73;7.35;;;30.40;62.50;;;;;;4870153;29;20049;-76